This is the latest recevied weather packets stored in our database for station/object IU7LMH-13. If no packets are shown the sender has not sent any weather packets the latest 10 day(s).
| Time | Temp. | Humidity | Pressure | Rain* | Wind** | Luminosity | Snow |
|---|---|---|---|---|---|---|---|
| 1778081144 | 18.89° C | 83% | 1013.8 hPa | 0 mm | - | - | - |
| 1778080544 | 18.89° C | 81% | 1013.7 hPa | 0 mm | - | - | - |
| 1778080057 | 18.89° C | 82% | 1013.9 hPa | 0 mm | - | - | - |
| 1778078980 | 19.44° C | 80% | 1013.6 hPa | 0 mm | - | - | - |
| 1778078497 | 20° C | 79% | 1013.7 hPa | 0 mm | - | - | - |
| 1778076817 | 20° C | 79% | 1013.9 hPa | 0 mm | - | - | - |
| 1778075498 | 20.56° C | 77% | 1013.6 hPa | 0 mm | - | - | - |
| 1778074657 | 20.56° C | 76% | 1013.9 hPa | 0 mm | - | - | - |
| 1778073457 | 21.11° C | 74% | 1014.2 hPa | 0 mm | - | - | - |
| 1778072379 | 20.56° C | 72% | 1014.4 hPa | 0 mm | - | - | - |
| 1778072258 | 20.56° C | 73% | 1014.4 hPa | 0 mm | - | - | - |
| 1778070578 | 20° C | 77% | 1014.6 hPa | 0 mm | - | - | - |
| 1778069381 | 20° C | 78% | 1014.5 hPa | 0 mm | - | - | - |
| 1778069018 | 20.56° C | 76% | 1014.4 hPa | 0 mm | - | - | - |
| 1778068898 | 20.56° C | 76% | 1014.5 hPa | 0 mm | - | - | - |
| 1778068657 | 20.56° C | 74% | 1014.4 hPa | 0 mm | - | - | - |
| 1778068180 | 21.11° C | 74% | 1014.2 hPa | 0 mm | - | - | - |
| 1778068058 | 20.56° C | 75% | 1014.4 hPa | 0 mm | - | - | - |
| 1778067819 | 20.56° C | 75% | 1014.3 hPa | 0 mm | - | - | - |
| 1778067580 | 20.56° C | 76% | 1014.4 hPa | 0 mm | - | - | - |
| 1778066743 | 19.44° C | 79% | 1014.4 hPa | 0 mm | - | - | - |
| 1778065658 | 18.89° C | 82% | 1014.7 hPa | 0 mm | - | - | - |
| 1778065058 | 18.89° C | 83% | 1014.7 hPa | 0 mm | - | - | - |
| 1778063258 | 18.33° C | 81% | 1014.8 hPa | 0 mm | - | - | - |
| 1778063144 | 18.33° C | 81% | 1014.6 hPa | 0 mm | - | - | - |
* Rain latest hour (hover to see other rain measurements)
** Current wind speed in m/s (hover to see current wind gust speed)